sensor_id;sensor_type;location;lat;lon;timestamp;pressure;altitude;pressure_sealevel;temperature;humidity
44441;BME280;30146;52.268;20.944;2022-12-20T00:00:10;101105.63;;;-0.46;65.23
44441;BME280;30146;52.268;20.944;2022-12-20T00:02:39;101099.82;;;-0.45;65.22
44441;BME280;30146;52.268;20.944;2022-12-20T00:05:08;101096.66;;;-0.41;65.28
44441;BME280;30146;52.268;20.944;2022-12-20T00:07:37;101093.19;;;-0.40;65.55
44441;BME280;30146;52.268;20.944;2022-12-20T00:10:08;101088.58;;;-0.37;65.61
44441;BME280;30146;52.268;20.944;2022-12-20T00:12:36;101083.98;;;-0.39;65.26
44441;BME280;30146;52.268;20.944;2022-12-20T00:15:07;101079.48;;;-0.38;65.51
44441;BME280;30146;52.268;20.944;2022-12-20T00:17:35;101075.82;;;-0.33;65.61
44441;BME280;30146;52.268;20.944;2022-12-20T00:20:07;101073.88;;;-0.29;65.81
44441;BME280;30146;52.268;20.944;2022-12-20T00:22:36;101069.81;;;-0.25;65.86
44441;BME280;30146;52.268;20.944;2022-12-20T00:25:06;101066.30;;;-0.21;65.98
44441;BME280;30146;52.268;20.944;2022-12-20T00:27:35;101059.70;;;-0.15;66.19
44441;BME280;30146;52.268;20.944;2022-12-20T00:30:05;101058.41;;;-0.10;66.14
44441;BME280;30146;52.268;20.944;2022-12-20T00:32:34;101053.52;;;-0.03;66.22
44441;BME280;30146;52.268;20.944;2022-12-20T00:35:03;101052.04;;;0.01;66.33
44441;BME280;30146;52.268;20.944;2022-12-20T00:37:32;101053.91;;;0.06;66.40
44441;BME280;30146;52.268;20.944;2022-12-20T00:40:02;101054.77;;;0.10;66.25
44441;BME280;30146;52.268;20.944;2022-12-20T00:42:32;101056.24;;;0.13;66.37
44441;BME280;30146;52.268;20.944;2022-12-20T00:45:00;101056.73;;;0.16;66.57
44441;BME280;30146;52.268;20.944;2022-12-20T00:47:29;101053.12;;;0.18;66.55
44441;BME280;30146;52.268;20.944;2022-12-20T00:49:58;101050.52;;;0.20;66.62
44441;BME280;30146;52.268;20.944;2022-12-20T00:52:26;101047.15;;;0.21;66.62
44441;BME280;30146;52.268;20.944;2022-12-20T00:54:55;101044.88;;;0.22;66.74
44441;BME280;30146;52.268;20.944;2022-12-20T00:57:24;101043.33;;;0.25;66.92
44441;BME280;30146;52.268;20.944;2022-12-20T00:59:52;101044.54;;;0.30;67.10
44441;BME280;30146;52.268;20.944;2022-12-20T01:02:21;101045.83;;;0.36;67.35
44441;BME280;30146;52.268;20.944;2022-12-20T01:04:50;101038.70;;;0.43;67.51
44441;BME280;30146;52.268;20.944;2022-12-20T01:07:19;101034.85;;;0.47;67.45
44441;BME280;30146;52.268;20.944;2022-12-20T01:09:51;101034.55;;;0.52;67.45
44441;BME280;30146;52.268;20.944;2022-12-20T01:12:19;101032.41;;;0.53;67.52
44441;BME280;30146;52.268;20.944;2022-12-20T01:14:48;101031.02;;;0.56;67.62
44441;BME280;30146;52.268;20.944;2022-12-20T01:17:17;101029.41;;;0.58;67.70
44441;BME280;30146;52.268;20.944;2022-12-20T01:19:46;101026.70;;;0.61;67.64
44441;BME280;30146;52.268;20.944;2022-12-20T01:22:15;101020.73;;;0.63;67.72
44441;BME280;30146;52.268;20.944;2022-12-20T01:24:43;101018.70;;;0.67;67.89
44441;BME280;30146;52.268;20.944;2022-12-20T01:27:12;101023.05;;;0.71;67.85
44441;BME280;30146;52.268;20.944;2022-12-20T01:29:40;101023.59;;;0.75;68.04
44441;BME280;30146;52.268;20.944;2022-12-20T01:32:09;101014.19;;;0.80;68.22
44441;BME280;30146;52.268;20.944;2022-12-20T01:34:38;101000.37;;;0.84;68.15
44441;BME280;30146;52.268;20.944;2022-12-20T01:37:07;100995.13;;;0.87;68.30
44441;BME280;30146;52.268;20.944;2022-12-20T01:39:36;100985.20;;;0.88;68.21
44441;BME280;30146;52.268;20.944;2022-12-20T01:42:05;100980.45;;;0.87;68.24
44441;BME280;30146;52.268;20.944;2022-12-20T01:44:58;100976.41;;;0.87;68.19
44441;BME280;30146;52.268;20.944;2022-12-20T01:47:30;100974.39;;;0.87;68.38
44441;BME280;30146;52.268;20.944;2022-12-20T01:50:02;100967.45;;;0.86;68.38
44441;BME280;30146;52.268;20.944;2022-12-20T01:52:35;100965.59;;;0.85;68.60
44441;BME280;30146;52.268;20.944;2022-12-20T01:55:09;100960.53;;;0.85;68.73
44441;BME280;30146;52.268;20.944;2022-12-20T01:57:43;100948.48;;;0.87;68.77
44441;BME280;30146;52.268;20.944;2022-12-20T02:00:15;100946.01;;;0.88;68.98
44441;BME280;30146;52.268;20.944;2022-12-20T02:02:45;100946.23;;;0.89;68.93
44441;BME280;30146;52.268;20.944;2022-12-20T02:05:17;100943.30;;;0.92;69.11
44441;BME280;30146;52.268;20.944;2022-12-20T02:07:49;100940.48;;;0.97;69.42
44441;BME280;30146;52.268;20.944;2022-12-20T02:10:21;100941.16;;;1.02;69.31
44441;BME280;30146;52.268;20.944;2022-12-20T02:12:56;100944.75;;;1.04;69.33
44441;BME280;30146;52.268;20.944;2022-12-20T02:15:37;100933.08;;;1.02;69.04
44441;BME280;30146;52.268;20.944;2022-12-20T02:18:18;100932.11;;;1.03;69.19
44441;BME280;30146;52.268;20.944;2022-12-20T02:21:07;100934.37;;;1.05;69.38
44441;BME280;30146;52.268;20.944;2022-12-20T02:27:01;100926.89;;;1.07;69.54
44441;BME280;30146;52.268;20.944;2022-12-20T02:29:36;100920.90;;;1.09;69.70
44441;BME280;30146;52.268;20.944;2022-12-20T02:32:13;100924.59;;;1.13;69.81
44441;BME280;30146;52.268;20.944;2022-12-20T02:34:45;100919.02;;;1.17;69.89
44441;BME280;30146;52.268;20.944;2022-12-20T02:37:14;100916.34;;;1.18;69.83
44441;BME280;30146;52.268;20.944;2022-12-20T02:39:44;100917.45;;;1.20;69.98
44441;BME280;30146;52.268;20.944;2022-12-20T02:42:15;100915.92;;;1.25;70.04
44441;BME280;30146;52.268;20.944;2022-12-20T02:44:51;100914.55;;;1.29;70.21
44441;BME280;30146;52.268;20.944;2022-12-20T02:47:46;100913.87;;;1.33;70.24
44441;BME280;30146;52.268;20.944;2022-12-20T02:50:17;100914.56;;;1.38;70.19
44441;BME280;30146;52.268;20.944;2022-12-20T02:52:49;100913.99;;;1.41;70.32
44441;BME280;30146;52.268;20.944;2022-12-20T02:55:22;100912.65;;;1.46;70.42
44441;BME280;30146;52.268;20.944;2022-12-20T02:57:57;100908.70;;;1.48;70.25
44441;BME280;30146;52.268;20.944;2022-12-20T03:00:33;100906.45;;;1.51;70.23
44441;BME280;30146;52.268;20.944;2022-12-20T03:03:06;100900.20;;;1.50;70.11
44441;BME280;30146;52.268;20.944;2022-12-20T03:05:52;100893.86;;;1.52;70.27
44441;BME280;30146;52.268;20.944;2022-12-20T03:08:23;100889.94;;;1.51;70.19
44441;BME280;30146;52.268;20.944;2022-12-20T03:10:53;100894.13;;;1.50;70.09
44441;BME280;30146;52.268;20.944;2022-12-20T03:13:23;100895.52;;;1.52;70.18
44441;BME280;30146;52.268;20.944;2022-12-20T03:15:57;100894.25;;;1.54;70.40
44441;BME280;30146;52.268;20.944;2022-12-20T03:18:25;100889.33;;;1.58;70.31
44441;BME280;30146;52.268;20.944;2022-12-20T03:20:54;100892.91;;;1.59;70.41
44441;BME280;30146;52.268;20.944;2022-12-20T03:23:23;100896.36;;;1.57;70.25
44441;BME280;30146;52.268;20.944;2022-12-20T03:25:52;100904.27;;;1.60;70.58
44441;BME280;30146;52.268;20.944;2022-12-20T03:28:30;100906.40;;;1.64;70.65
44441;BME280;30146;52.268;20.944;2022-12-20T03:30:59;100901.96;;;1.67;70.57
44441;BME280;30146;52.268;20.944;2022-12-20T03:33:29;100884.59;;;1.71;70.89
44441;BME280;30146;52.268;20.944;2022-12-20T03:35:59;100878.31;;;1.75;70.91
44441;BME280;30146;52.268;20.944;2022-12-20T03:38:27;100884.67;;;1.79;70.81
44441;BME280;30146;52.268;20.944;2022-12-20T03:40:56;100886.98;;;1.82;70.83
44441;BME280;30146;52.268;20.944;2022-12-20T03:43:26;100879.92;;;1.82;70.73
44441;BME280;30146;52.268;20.944;2022-12-20T03:45:54;100882.50;;;1.84;70.93
44441;BME280;30146;52.268;20.944;2022-12-20T03:48:23;100883.05;;;1.85;70.68
44441;BME280;30146;52.268;20.944;2022-12-20T03:50:52;100890.30;;;1.90;70.95
44441;BME280;30146;52.268;20.944;2022-12-20T03:53:20;100887.16;;;1.91;71.03
44441;BME280;30146;52.268;20.944;2022-12-20T03:55:49;100877.40;;;1.93;70.96
44441;BME280;30146;52.268;20.944;2022-12-20T03:58:18;100879.70;;;1.96;70.97
44441;BME280;30146;52.268;20.944;2022-12-20T04:00:47;100880.69;;;2.00;71.03
44441;BME280;30146;52.268;20.944;2022-12-20T04:03:36;100885.36;;;2.04;70.94
44441;BME280;30146;52.268;20.944;2022-12-20T04:06:05;100885.41;;;2.05;71.02
44441;BME280;30146;52.268;20.944;2022-12-20T04:08:34;100885.91;;;2.10;71.14
44441;BME280;30146;52.268;20.944;2022-12-20T04:11:02;100891.58;;;2.13;71.21
44441;BME280;30146;52.268;20.944;2022-12-20T04:14:06;100882.77;;;2.17;70.93
44441;BME280;30146;52.268;20.944;2022-12-20T04:16:35;100873.54;;;2.18;71.18
44441;BME280;30146;52.268;20.944;2022-12-20T04:19:05;100869.38;;;2.20;71.10
44441;BME280;30146;52.268;20.944;2022-12-20T04:21:38;100859.98;;;2.22;70.90
44441;BME280;30146;52.268;20.944;2022-12-20T04:24:07;100858.55;;;2.24;71.06
44441;BME280;30146;52.268;20.944;2022-12-20T04:26:41;100854.04;;;2.25;71.05
44441;BME280;30146;52.268;20.944;2022-12-20T04:29:11;100850.85;;;2.26;70.72
44441;BME280;30146;52.268;20.944;2022-12-20T04:31:41;100856.20;;;2.24;70.69
44441;BME280;30146;52.268;20.944;2022-12-20T04:34:10;100848.32;;;2.26;70.97
44441;BME280;30146;52.268;20.944;2022-12-20T04:36:39;100842.10;;;2.27;70.77
44441;BME280;30146;52.268;20.944;2022-12-20T04:39:11;100854.98;;;2.28;70.94
44441;BME280;30146;52.268;20.944;2022-12-20T04:41:51;100855.66;;;2.29;70.87
44441;BME280;30146;52.268;20.944;2022-12-20T04:44:20;100862.21;;;2.28;70.85
44441;BME280;30146;52.268;20.944;2022-12-20T04:46:49;100860.02;;;2.28;70.82
44441;BME280;30146;52.268;20.944;2022-12-20T04:49:19;100859.98;;;2.27;70.75
44441;BME280;30146;52.268;20.944;2022-12-20T04:51:47;100862.48;;;2.26;70.92
44441;BME280;30146;52.268;20.944;2022-12-20T04:54:16;100862.91;;;2.23;70.78
44441;BME280;30146;52.268;20.944;2022-12-20T04:56:58;100865.18;;;2.20;70.79
44441;BME280;30146;52.268;20.944;2022-12-20T04:59:28;100869.70;;;2.20;70.88
44441;BME280;30146;52.268;20.944;2022-12-20T05:01:57;100868.53;;;2.20;71.02
44441;BME280;30146;52.268;20.944;2022-12-20T05:04:52;100856.04;;;2.20;71.18
44441;BME280;30146;52.268;20.944;2022-12-20T05:07:21;100849.32;;;2.20;71.02
44441;BME280;30146;52.268;20.944;2022-12-20T05:09:54;100846.48;;;2.21;71.18
44441;BME280;30146;52.268;20.944;2022-12-20T05:12:24;100846.38;;;2.23;71.28
44441;BME280;30146;52.268;20.944;2022-12-20T05:14:53;100847.13;;;2.25;71.23
44441;BME280;30146;52.268;20.944;2022-12-20T05:17:22;100844.27;;;2.25;71.14
44441;BME280;30146;52.268;20.944;2022-12-20T05:19:54;100837.20;;;2.26;71.24
44441;BME280;30146;52.268;20.944;2022-12-20T05:22:23;100839.29;;;2.28;71.30
44441;BME280;30146;52.268;20.944;2022-12-20T05:25:12;100842.21;;;2.30;71.07
44441;BME280;30146;52.268;20.944;2022-12-20T05:28:02;100839.48;;;2.29;71.05
44441;BME280;30146;52.268;20.944;2022-12-20T05:30:34;100835.06;;;2.28;70.87
44441;BME280;30146;52.268;20.944;2022-12-20T05:33:03;100831.30;;;2.26;70.85
44441;BME280;30146;52.268;20.944;2022-12-20T05:35:32;100820.78;;;2.24;71.10
44441;BME280;30146;52.268;20.944;2022-12-20T05:38:07;100824.54;;;2.26;70.99
44441;BME280;30146;52.268;20.944;2022-12-20T05:40:36;100831.80;;;2.26;71.08
44441;BME280;30146;52.268;20.944;2022-12-20T05:43:05;100831.98;;;2.27;71.31
44441;BME280;30146;52.268;20.944;2022-12-20T05:45:37;100837.55;;;2.26;71.15
44441;BME280;30146;52.268;20.944;2022-12-20T05:48:11;100840.46;;;2.28;71.14
44441;BME280;30146;52.268;20.944;2022-12-20T05:50:41;100840.98;;;2.34;71.57
44441;BME280;30146;52.268;20.944;2022-12-20T05:53:24;100847.23;;;2.39;71.46
44441;BME280;30146;52.268;20.944;2022-12-20T05:55:56;100845.70;;;2.44;71.41
44441;BME280;30146;52.268;20.944;2022-12-20T05:58:36;100845.30;;;2.47;71.29
44441;BME280;30146;52.268;20.944;2022-12-20T06:01:07;100842.69;;;2.51;71.57
44441;BME280;30146;52.268;20.944;2022-12-20T06:03:38;100846.48;;;2.54;71.46
44441;BME280;30146;52.268;20.944;2022-12-20T06:06:11;100839.46;;;2.55;71.32
44441;BME280;30146;52.268;20.944;2022-12-20T06:08:44;100834.39;;;2.55;71.18
44441;BME280;30146;52.268;20.944;2022-12-20T06:11:21;100838.98;;;2.56;71.08
44441;BME280;30146;52.268;20.944;2022-12-20T06:14:03;100839.56;;;2.58;71.22
44441;BME280;30146;52.268;20.944;2022-12-20T06:16:32;100835.05;;;2.60;71.38
44441;BME280;30146;52.268;20.944;2022-12-20T06:19:02;100833.11;;;2.63;71.33
44441;BME280;30146;52.268;20.944;2022-12-20T06:21:30;100838.77;;;2.66;71.26
44441;BME280;30146;52.268;20.944;2022-12-20T06:23:59;100842.38;;;2.68;71.00
44441;BME280;30146;52.268;20.944;2022-12-20T06:26:29;100846.08;;;2.67;70.99
44441;BME280;30146;52.268;20.944;2022-12-20T06:29:05;100844.38;;;2.67;71.02
44441;BME280;30146;52.268;20.944;2022-12-20T06:31:54;100843.77;;;2.69;71.07
44441;BME280;30146;52.268;20.944;2022-12-20T06:34:23;100846.40;;;2.73;71.10
44441;BME280;30146;52.268;20.944;2022-12-20T06:36:53;100838.98;;;2.73;70.95
44441;BME280;30146;52.268;20.944;2022-12-20T06:39:36;100845.11;;;2.74;70.77
44441;BME280;30146;52.268;20.944;2022-12-20T06:42:15;100843.83;;;2.77;70.98
44441;BME280;30146;52.268;20.944;2022-12-20T06:44:47;100840.52;;;2.79;70.77
44441;BME280;30146;52.268;20.944;2022-12-20T06:47:34;100840.92;;;2.81;70.83
44441;BME280;30146;52.268;20.944;2022-12-20T06:50:07;100837.41;;;2.82;70.97
44441;BME280;30146;52.268;20.944;2022-12-20T06:52:42;100843.08;;;2.85;70.95
44441;BME280;30146;52.268;20.944;2022-12-20T06:55:14;100848.41;;;2.89;70.92
44441;BME280;30146;52.268;20.944;2022-12-20T06:57:43;100851.00;;;2.91;70.82
44441;BME280;30146;52.268;20.944;2022-12-20T07:00:14;100853.73;;;2.92;70.95
44441;BME280;30146;52.268;20.944;2022-12-20T07:02:43;100851.59;;;2.93;70.76
44441;BME280;30146;52.268;20.944;2022-12-20T07:05:12;100850.13;;;2.96;70.66
44441;BME280;30146;52.268;20.944;2022-12-20T07:07:41;100854.11;;;2.99;70.65
44441;BME280;30146;52.268;20.944;2022-12-20T07:10:13;100853.39;;;3.03;70.85
44441;BME280;30146;52.268;20.944;2022-12-20T07:12:42;100856.38;;;3.07;70.71
44441;BME280;30146;52.268;20.944;2022-12-20T07:15:16;100855.61;;;3.10;70.80
44441;BME280;30146;52.268;20.944;2022-12-20T07:17:44;100859.58;;;3.13;70.79
44441;BME280;30146;52.268;20.944;2022-12-20T07:20:13;100860.80;;;3.14;70.48
44441;BME280;30146;52.268;20.944;2022-12-20T07:22:44;100860.86;;;3.17;70.40
44441;BME280;30146;52.268;20.944;2022-12-20T07:25:14;100854.91;;;3.20;70.49
44441;BME280;30146;52.268;20.944;2022-12-20T07:27:46;100855.66;;;3.23;70.26
44441;BME280;30146;52.268;20.944;2022-12-20T07:30:17;100849.25;;;3.23;70.22
44441;BME280;30146;52.268;20.944;2022-12-20T07:32:46;100845.86;;;3.23;70.38
44441;BME280;30146;52.268;20.944;2022-12-20T07:35:16;100845.89;;;3.24;69.98
44441;BME280;30146;52.268;20.944;2022-12-20T07:37:45;100848.14;;;3.26;70.03
44441;BME280;30146;52.268;20.944;2022-12-20T07:40:14;100850.06;;;3.28;70.34
44441;BME280;30146;52.268;20.944;2022-12-20T07:42:43;100854.88;;;3.31;69.89
44441;BME280;30146;52.268;20.944;2022-12-20T07:45:16;100856.23;;;3.31;69.75
44441;BME280;30146;52.268;20.944;2022-12-20T07:47:45;100850.42;;;3.29;69.69
44441;BME280;30146;52.268;20.944;2022-12-20T07:50:14;100845.90;;;3.31;69.49
44441;BME280;30146;52.268;20.944;2022-12-20T07:52:44;100840.13;;;3.35;69.89
44441;BME280;30146;52.268;20.944;2022-12-20T07:55:15;100842.92;;;3.39;69.62
44441;BME280;30146;52.268;20.944;2022-12-20T07:57:46;100842.37;;;3.43;69.93
44441;BME280;30146;52.268;20.944;2022-12-20T08:00:17;100843.70;;;3.48;69.81
44441;BME280;30146;52.268;20.944;2022-12-20T08:02:49;100842.95;;;3.52;69.70
44441;BME280;30146;52.268;20.944;2022-12-20T08:05:22;100847.98;;;3.57;69.96
44441;BME280;30146;52.268;20.944;2022-12-20T08:07:52;100848.38;;;3.59;69.53
44441;BME280;30146;52.268;20.944;2022-12-20T08:10:27;100853.31;;;3.60;69.18
44441;BME280;30146;52.268;20.944;2022-12-20T08:12:56;100850.11;;;3.61;69.25
44441;BME280;30146;52.268;20.944;2022-12-20T08:15:26;100850.35;;;3.63;69.17
44441;BME280;30146;52.268;20.944;2022-12-20T08:17:56;100847.85;;;3.65;68.86
44441;BME280;30146;52.268;20.944;2022-12-20T08:20:25;100845.64;;;3.64;69.12
44441;BME280;30146;52.268;20.944;2022-12-20T08:22:54;100843.56;;;3.62;68.90
44441;BME280;30146;52.268;20.944;2022-12-20T08:25:23;100842.05;;;3.62;68.85
44441;BME280;30146;52.268;20.944;2022-12-20T08:27:52;100844.98;;;3.65;68.82
44441;BME280;30146;52.268;20.944;2022-12-20T08:30:21;100845.16;;;3.65;68.75
44441;BME280;30146;52.268;20.944;2022-12-20T08:32:50;100835.38;;;3.66;68.81
44441;BME280;30146;52.268;20.944;2022-12-20T08:35:19;100836.47;;;3.69;68.76
44441;BME280;30146;52.268;20.944;2022-12-20T08:37:47;100838.06;;;3.72;69.11
44441;BME280;30146;52.268;20.944;2022-12-20T08:40:18;100838.31;;;3.75;68.78
44441;BME280;30146;52.268;20.944;2022-12-20T08:42:47;100835.66;;;3.77;68.78
44441;BME280;30146;52.268;20.944;2022-12-20T08:45:17;100838.07;;;3.78;68.49
44441;BME280;30146;52.268;20.944;2022-12-20T08:47:46;100840.52;;;3.82;68.67
44441;BME280;30146;52.268;20.944;2022-12-20T08:50:15;100845.18;;;3.85;68.89
44441;BME280;30146;52.268;20.944;2022-12-20T08:52:44;100838.27;;;3.86;68.47
44441;BME280;30146;52.268;20.944;2022-12-20T08:55:14;100836.16;;;3.90;68.71
44441;BME280;30146;52.268;20.944;2022-12-20T08:57:43;100833.56;;;3.94;68.48
44441;BME280;30146;52.268;20.944;2022-12-20T09:00:22;100835.05;;;3.99;68.73
44441;BME280;30146;52.268;20.944;2022-12-20T09:02:50;100833.13;;;4.03;68.45
44441;BME280;30146;52.268;20.944;2022-12-20T09:05:22;100841.53;;;4.08;68.26
44441;BME280;30146;52.268;20.944;2022-12-20T09:07:50;100837.41;;;4.13;68.43
44441;BME280;30146;52.268;20.944;2022-12-20T09:10:19;100832.98;;;4.19;68.29
44441;BME280;30146;52.268;20.944;2022-12-20T09:12:47;100832.45;;;4.24;68.19
44441;BME280;30146;52.268;20.944;2022-12-20T09:15:16;100830.02;;;4.29;68.04
44441;BME280;30146;52.268;20.944;2022-12-20T09:17:45;100829.98;;;4.35;67.69
44441;BME280;30146;52.268;20.944;2022-12-20T09:20:14;100823.19;;;4.41;67.98
44441;BME280;30146;52.268;20.944;2022-12-20T09:22:43;100817.44;;;4.48;67.72
44441;BME280;30146;52.268;20.944;2022-12-20T09:25:11;100814.96;;;4.59;67.80
44441;BME280;30146;52.268;20.944;2022-12-20T09:27:40;100820.13;;;4.70;67.66
44441;BME280;30146;52.268;20.944;2022-12-20T09:30:10;100819.88;;;4.81;67.56
44441;BME280;30146;52.268;20.944;2022-12-20T09:32:39;100819.17;;;4.96;67.83
44441;BME280;30146;52.268;20.944;2022-12-20T09:35:09;100819.34;;;5.13;67.67
44441;BME280;30146;52.268;20.944;2022-12-20T09:37:37;100816.92;;;5.36;67.66
44441;BME280;30146;52.268;20.944;2022-12-20T09:40:13;100811.80;;;5.61;67.57
44441;BME280;30146;52.268;20.944;2022-12-20T09:42:41;100805.26;;;5.85;67.03
44441;BME280;30146;52.268;20.944;2022-12-20T09:45:18;100808.39;;;6.08;66.84
44441;BME280;30146;52.268;20.944;2022-12-20T09:47:49;100796.77;;;6.35;66.71
44441;BME280;30146;52.268;20.944;2022-12-20T09:50:27;100805.06;;;6.57;66.05
44441;BME280;30146;52.268;20.944;2022-12-20T09:53:08;100813.40;;;6.81;65.75
44441;BME280;30146;52.268;20.944;2022-12-20T09:55:49;100820.71;;;7.23;66.19
44441;BME280;30146;52.268;20.944;2022-12-20T09:58:34;100822.69;;;7.63;65.93
44441;BME280;30146;52.268;20.944;2022-12-20T10:01:15;100822.62;;;7.90;65.29
44441;BME280;30146;52.268;20.944;2022-12-20T10:03:51;100817.72;;;8.16;64.48
44441;BME280;30146;52.268;20.944;2022-12-20T10:06:32;100813.58;;;8.30;63.72
44441;BME280;30146;52.268;20.944;2022-12-20T10:09:09;100806.45;;;8.34;63.23
44441;BME280;30146;52.268;20.944;2022-12-20T10:11:51;100809.04;;;8.38;62.83
44441;BME280;30146;52.268;20.944;2022-12-20T10:14:44;100809.59;;;8.42;62.33
44441;BME280;30146;52.268;20.944;2022-12-20T10:17:25;100808.13;;;8.51;61.95
44441;BME280;30146;52.268;20.944;2022-12-20T10:20:20;100805.64;;;8.63;61.68
44441;BME280;30146;52.268;20.944;2022-12-20T10:22:53;100801.42;;;8.70;61.52
44441;BME280;30146;52.268;20.944;2022-12-20T10:25:28;100806.91;;;8.76;61.28
44441;BME280;30146;52.268;20.944;2022-12-20T10:27:59;100813.20;;;8.71;61.02
44441;BME280;30146;52.268;20.944;2022-12-20T10:30:30;100812.56;;;8.53;60.25
44441;BME280;30146;52.268;20.944;2022-12-20T10:32:59;100807.30;;;8.34;60.35
44441;BME280;30146;52.268;20.944;2022-12-20T10:35:29;100806.66;;;8.17;60.24
44441;BME280;30146;52.268;20.944;2022-12-20T10:38:04;100801.07;;;7.98;60.00
44441;BME280;30146;52.268;20.944;2022-12-20T10:40:38;100805.50;;;7.80;60.05
44441;BME280;30146;52.268;20.944;2022-12-20T10:43:33;100795.27;;;7.61;60.15
44441;BME280;30146;52.268;20.944;2022-12-20T10:46:05;100791.06;;;7.49;60.23
44441;BME280;30146;52.268;20.944;2022-12-20T10:48:37;100783.66;;;7.39;60.57
44441;BME280;30146;52.268;20.944;2022-12-20T10:51:13;100787.30;;;7.30;60.61
44441;BME280;30146;52.268;20.944;2022-12-20T10:53:55;100791.78;;;7.20;60.43
44441;BME280;30146;52.268;20.944;2022-12-20T10:56:25;100792.18;;;7.11;60.62
44441;BME280;30146;52.268;20.944;2022-12-20T10:58:57;100790.96;;;7.08;60.88
44441;BME280;30146;52.268;20.944;2022-12-20T11:01:30;100783.23;;;7.02;60.88
44441;BME280;30146;52.268;20.944;2022-12-20T11:04:02;100768.66;;;6.91;60.55
44441;BME280;30146;52.268;20.944;2022-12-20T11:06:42;100753.23;;;6.81;60.63
44441;BME280;30146;52.268;20.944;2022-12-20T11:09:30;100743.43;;;6.71;60.54
44441;BME280;30146;52.268;20.944;2022-12-20T11:12:03;100736.36;;;6.63;60.70
44441;BME280;30146;52.268;20.944;2022-12-20T11:14:34;100732.02;;;6.55;60.80
44441;BME280;30146;52.268;20.944;2022-12-20T11:17:20;100724.98;;;6.49;60.93
44441;BME280;30146;52.268;20.944;2022-12-20T11:20:13;100721.14;;;6.43;60.97
44441;BME280;30146;52.268;20.944;2022-12-20T11:22:55;100718.81;;;6.34;60.94
44441;BME280;30146;52.268;20.944;2022-12-20T11:25:38;100720.59;;;6.26;60.99
44441;BME280;30146;52.268;20.944;2022-12-20T11:28:27;100717.73;;;6.17;61.03
44441;BME280;30146;52.268;20.944;2022-12-20T11:31:10;100729.33;;;6.09;61.19
44441;BME280;30146;52.268;20.944;2022-12-20T11:33:56;100733.62;;;6.02;61.22
44441;BME280;30146;52.268;20.944;2022-12-20T11:36:39;100734.59;;;5.98;61.38
44441;BME280;30146;52.268;20.944;2022-12-20T11:39:14;100732.16;;;5.95;61.66
44441;BME280;30146;52.268;20.944;2022-12-20T11:42:00;100728.67;;;5.90;61.53
44441;BME280;30146;52.268;20.944;2022-12-20T11:44:51;100720.46;;;5.86;61.51
44441;BME280;30146;52.268;20.944;2022-12-20T11:50:39;100722.22;;;5.80;61.70
44441;BME280;30146;52.268;20.944;2022-12-20T11:53:24;100721.36;;;5.80;61.83
44441;BME280;30146;52.268;20.944;2022-12-20T11:55:58;100718.18;;;5.82;61.70
44441;BME280;30146;52.268;20.944;2022-12-20T11:58:29;100719.03;;;5.82;61.82
44441;BME280;30146;52.268;20.944;2022-12-20T12:01:07;100714.98;;;5.84;61.80
44441;BME280;30146;52.268;20.944;2022-12-20T12:03:38;100707.24;;;5.88;62.05
44441;BME280;30146;52.268;20.944;2022-12-20T12:06:16;100709.00;;;5.92;61.97
44441;BME280;30146;52.268;20.944;2022-12-20T12:08:54;100716.77;;;5.98;62.04
44441;BME280;30146;52.268;20.944;2022-12-20T12:11:30;100721.27;;;6.04;62.11
44441;BME280;30146;52.268;20.944;2022-12-20T12:14:32;100722.08;;;6.13;62.18
44441;BME280;30146;52.268;20.944;2022-12-20T12:17:10;100717.96;;;6.21;62.02
44441;BME280;30146;52.268;20.944;2022-12-20T12:19:43;100710.57;;;6.26;61.86
44441;BME280;30146;52.268;20.944;2022-12-20T12:22:20;100705.71;;;6.31;61.89
44441;BME280;30146;52.268;20.944;2022-12-20T12:24:59;100706.27;;;6.35;61.66
44441;BME280;30146;52.268;20.944;2022-12-20T12:27:31;100702.21;;;6.36;61.71
44441;BME280;30146;52.268;20.944;2022-12-20T12:30:00;100697.48;;;6.37;61.63
44441;BME280;30146;52.268;20.944;2022-12-20T12:32:33;100704.63;;;6.39;61.56
44441;BME280;30146;52.268;20.944;2022-12-20T12:35:29;100700.86;;;6.37;61.48
44441;BME280;30146;52.268;20.944;2022-12-20T12:45:04;100710.02;;;6.24;61.20
44441;BME280;30146;52.268;20.944;2022-12-20T12:47:39;100701.67;;;6.22;61.04
44441;BME280;30146;52.268;20.944;2022-12-20T12:50:22;100700.80;;;6.19;61.08
44441;BME280;30146;52.268;20.944;2022-12-20T12:52:53;100699.54;;;6.16;61.20
44441;BME280;30146;52.268;20.944;2022-12-20T12:55:41;100693.91;;;6.14;61.24
44441;BME280;30146;52.268;20.944;2022-12-20T12:58:27;100696.55;;;6.08;61.14
44441;BME280;30146;52.268;20.944;2022-12-20T13:00:59;100697.86;;;6.05;61.22
44441;BME280;30146;52.268;20.944;2022-12-20T13:03:43;100700.02;;;6.02;61.27
44441;BME280;30146;52.268;20.944;2022-12-20T13:06:50;100709.84;;;5.98;61.28
44441;BME280;30146;52.268;20.944;2022-12-20T13:09:36;100708.85;;;5.93;61.26
44441;BME280;30146;52.268;20.944;2022-12-20T13:16:04;100711.12;;;5.86;61.35
44441;BME280;30146;52.268;20.944;2022-12-20T13:18:33;100721.69;;;5.78;61.17
44441;BME280;30146;52.268;20.944;2022-12-20T13:24:43;100724.44;;;5.70;61.53
44441;BME280;30146;52.268;20.944;2022-12-20T13:27:28;100726.30;;;5.70;61.52
44441;BME280;30146;52.268;20.944;2022-12-20T13:38:50;100726.95;;;5.58;61.49
44441;BME280;30146;52.268;20.944;2022-12-20T13:41:35;100731.36;;;5.59;61.76
44441;BME280;30146;52.268;20.944;2022-12-20T13:44:27;100733.73;;;5.57;61.51
44441;BME280;30146;52.268;20.944;2022-12-20T13:47:05;100733.50;;;5.54;61.62
44441;BME280;30146;52.268;20.944;2022-12-20T13:49:38;100732.44;;;5.51;61.83
44441;BME280;30146;52.268;20.944;2022-12-20T13:52:23;100732.92;;;5.50;61.60